createdAt,value
2019-02-26T00:00:26.655Z,44.65
2019-02-26T00:05:47.825Z,46.23
2019-02-26T00:10:58.599Z,46.03
2019-02-26T00:16:05.592Z,47.25
2019-02-26T00:21:10.471Z,47.19
2019-02-26T00:26:17.761Z,47.93
2019-02-26T00:31:24.288Z,47.59
2019-02-26T00:36:34.183Z,48.39
2019-02-26T00:41:58.864Z,49.95
2019-02-26T00:47:23.011Z,49.85
2019-02-26T00:52:30.371Z,51.01
2019-02-26T00:57:38.448Z,52.37
2019-02-26T01:02:44.025Z,51.53
2019-02-26T01:07:52.105Z,52.42
2019-02-26T01:12:58.663Z,52.32
2019-02-26T01:18:20.723Z,52.57
2019-02-26T01:23:28.968Z,53.21
2019-02-26T01:28:44.149Z,53.21
2019-02-26T01:34:09.775Z,52.54
2019-02-26T01:39:16.352Z,53.96
2019-02-26T01:44:28.096Z,54.28
2019-02-26T01:49:31.594Z,54.28
2019-02-26T01:54:39.170Z,54.96
2019-02-26T01:59:44.415Z,54.82
2019-02-26T02:04:50.383Z,54.93
2019-02-26T02:09:58.266Z,54.44
2019-02-26T02:15:08.087Z,55.94
2019-02-26T02:20:19.385Z,53.45
2019-02-26T02:25:23.200Z,49.88
2019-02-26T02:30:31.379Z,47.78
2019-02-26T02:35:36.270Z,47.78
2019-02-26T02:40:43.304Z,49.18
2019-02-26T02:45:49.975Z,49.18
2019-02-26T02:50:56.318Z,50.32
2019-02-26T02:56:03.746Z,50.32
2019-02-26T03:01:10.256Z,51.37
2019-02-26T03:06:15.867Z,51.54
2019-02-26T03:11:22.112Z,52.11
2019-02-26T03:16:27.721Z,52.11
2019-02-26T03:21:33.223Z,52.30
2019-02-26T03:26:38.762Z,52.89
2019-02-26T03:31:47.130Z,52.89
2019-02-26T03:36:51.554Z,51.20
2019-02-26T03:41:57.184Z,50.01
2019-02-26T03:47:03.226Z,50.84
2019-02-26T03:52:08.820Z,50.84
2019-02-26T03:57:16.642Z,51.13
2019-02-26T04:02:23.491Z,50.69
2019-02-26T04:07:30.251Z,51.92
2019-02-26T04:12:41.836Z,51.92
2019-02-26T04:17:44.485Z,51.14
2019-02-26T04:22:53.293Z,51.21
2019-02-26T04:28:40.429Z,51.22
2019-02-26T04:34:31.371Z,51.50
2019-02-26T04:40:14.301Z,52.00
2019-02-26T04:46:17.805Z,52.26
2019-02-26T04:51:35.853Z,51.83
2019-02-26T04:56:42.833Z,53.47
2019-02-26T05:01:49.910Z,53.30
2019-02-26T05:06:55.728Z,53.15
2019-02-26T05:12:03.585Z,53.11
2019-02-26T05:17:11.633Z,52.65
2019-02-26T05:22:19.834Z,53.43
2019-02-26T05:27:25.432Z,54.01
2019-02-26T05:32:33.397Z,53.25
2019-02-26T05:37:40.992Z,52.97
2019-02-26T05:42:49.699Z,53.05
2019-02-26T05:47:58.668Z,52.41
2019-02-26T05:53:05.524Z,52.07
2019-02-26T05:58:12.573Z,52.53
2019-02-26T06:03:19.828Z,54.28
2019-02-26T06:08:32.282Z,56.95
2019-02-26T06:13:38.266Z,55.71
2019-02-26T06:18:46.511Z,54.26
2019-02-26T06:23:55.715Z,54.25
2019-02-26T06:29:03.055Z,53.85
2019-02-26T06:34:11.298Z,55.17
2019-02-26T06:39:20.257Z,52.47
2019-02-26T06:44:47.138Z,51.54
2019-02-26T06:49:54.223Z,51.43
2019-02-26T06:55:03.545Z,51.23
2019-02-26T07:00:26.918Z,49.52
2019-02-26T07:05:33.659Z,49.52
2019-02-26T07:10:39.569Z,48.54
2019-02-26T07:15:45.424Z,47.54
2019-02-26T07:20:53.134Z,45.74
2019-02-26T07:26:00.349Z,46.02
2019-02-26T07:31:08.123Z,45.14
2019-02-26T07:36:13.592Z,44.32
2019-02-26T07:41:31.492Z,43.30
2019-02-26T07:46:38.515Z,43.00
2019-02-26T07:51:44.346Z,42.73
2019-02-26T07:56:52.361Z,41.84
2019-02-26T08:01:57.544Z,41.34
2019-02-26T08:07:03.778Z,40.29
2019-02-26T08:12:11.254Z,40.73
2019-02-26T08:17:17.717Z,39.99
2019-02-26T08:22:24.837Z,39.43
2019-02-26T08:27:33.853Z,40.02
2019-02-26T08:32:40.088Z,39.01
2019-02-26T08:37:46.099Z,38.85
2019-02-26T08:42:54.880Z,39.78
2019-02-26T08:48:26.439Z,38.67
2019-02-26T08:53:31.803Z,38.51
2019-02-26T08:58:37.529Z,39.05
2019-02-26T09:03:43.957Z,39.17
2019-02-26T09:08:49.912Z,41.56
2019-02-26T09:13:59.523Z,38.56
2019-02-26T09:19:07.232Z,39.02
2019-02-26T09:24:12.790Z,38.99
2019-02-26T09:29:19.768Z,37.97
2019-02-26T09:34:28.707Z,37.23
2019-02-26T09:39:36.321Z,37.44
2019-02-26T09:44:42.601Z,38.58
2019-02-26T09:49:49.455Z,38.11
2019-02-26T09:54:55.612Z,37.42
2019-02-26T10:00:06.030Z,37.90
2019-02-26T10:05:14.102Z,36.90
2019-02-26T10:10:20.720Z,36.61
2019-02-26T10:15:45.274Z,36.92
2019-02-26T10:21:09.198Z,37.22
2019-02-26T10:26:18.647Z,36.58
2019-02-26T10:31:27.493Z,36.12
2019-02-26T10:36:34.765Z,35.44
2019-02-26T10:41:41.808Z,35.24
2019-02-26T10:46:47.258Z,34.83
2019-02-26T10:51:52.854Z,34.06
2019-02-26T10:57:00.433Z,35.08
2019-02-26T11:02:06.794Z,34.62
2019-02-26T11:07:14.208Z,33.84
2019-02-26T11:12:33.986Z,33.73
2019-02-26T11:17:38.683Z,33.27
2019-02-26T11:22:49.754Z,34.97
2019-02-26T11:27:55.978Z,34.73
2019-02-26T11:33:38.360Z,35.05
2019-02-26T11:38:47.066Z,34.62
2019-02-26T11:43:53.183Z,33.70
2019-02-26T11:48:58.771Z,32.92
2019-02-26T11:54:17.691Z,33.89
2019-02-26T11:59:23.864Z,33.95
2019-02-26T12:04:29.501Z,32.83
2019-02-26T12:09:38.548Z,31.66
2019-02-26T12:14:47.949Z,32.31
2019-02-26T12:19:53.432Z,32.52
2019-02-26T12:25:01.837Z,32.95
2019-02-26T12:30:10.701Z,33.13
2019-02-26T12:35:17.963Z,32.76
2019-02-26T12:40:25.529Z,33.13
2019-02-26T12:45:31.808Z,32.10
2019-02-26T12:50:40.479Z,33.00
2019-02-26T12:55:45.641Z,33.01
2019-02-26T13:00:51.302Z,32.83
2019-02-26T13:05:56.861Z,33.32
2019-02-26T13:11:02.534Z,32.87
2019-02-26T13:16:16.690Z,33.28
2019-02-26T13:21:23.375Z,33.09
2019-02-26T13:27:00.982Z,33.47
2019-02-26T13:32:13.098Z,33.57
2019-02-26T13:37:15.608Z,33.19
2019-02-26T13:42:21.637Z,33.78
2019-02-26T13:47:31.086Z,34.59
2019-02-26T13:52:37.053Z,34.76
2019-02-26T13:57:42.607Z,34.98
2019-02-26T14:02:50.222Z,34.30
2019-02-26T14:07:56.139Z,35.34
2019-02-26T14:13:03.807Z,35.67
2019-02-26T14:18:11.258Z,35.01
2019-02-26T14:23:34.984Z,33.58
2019-02-26T14:28:44.108Z,34.38
2019-02-26T14:33:57.312Z,34.39
2019-02-26T14:39:05.879Z,34.83
2019-02-26T14:44:17.136Z,35.47
2019-02-26T14:49:22.763Z,35.54
2019-02-26T14:54:32.972Z,35.98
2019-02-26T14:59:48.164Z,36.17
2019-02-26T15:04:53.812Z,35.67
2019-02-26T15:10:00.470Z,36.82
2019-02-26T15:15:10.774Z,37.32
2019-02-26T15:20:18.101Z,37.59
2019-02-26T15:25:24.806Z,36.75
2019-02-26T15:30:30.412Z,36.71
2019-02-26T15:35:35.980Z,36.90
2019-02-26T15:40:42.538Z,36.48
2019-02-26T15:45:52.065Z,36.05
2019-02-26T15:50:55.514Z,36.01
2019-02-26T15:56:02.114Z,36.34
2019-02-26T16:01:15.756Z,36.88
2019-02-26T16:06:21.479Z,36.71
2019-02-26T16:11:27.095Z,37.29
2019-02-26T16:16:34.471Z,37.64
2019-02-26T16:21:40.260Z,38.03
2019-02-26T16:26:46.041Z,37.06
2019-02-26T16:31:52.101Z,37.20
2019-02-26T16:36:57.818Z,36.92
2019-02-26T16:42:05.444Z,36.41
2019-02-26T16:47:12.653Z,37.05
2019-02-26T16:52:19.558Z,36.42
2019-02-26T16:57:28.184Z,36.26
2019-02-26T17:02:34.500Z,37.43
2019-02-26T17:07:45.030Z,37.42
2019-02-26T17:12:54.147Z,37.53
2019-02-26T17:18:10.357Z,37.70
2019-02-26T17:23:21.938Z,38.01
2019-02-26T17:28:30.812Z,38.24
2019-02-26T17:33:36.822Z,38.26
2019-02-26T17:38:45.556Z,38.01
2019-02-26T17:43:53.937Z,38.29
2019-02-26T17:49:02.625Z,37.86
2019-02-26T17:54:19.405Z,38.12
2019-02-26T17:59:33.107Z,38.98
2019-02-26T18:04:40.307Z,39.08
2019-02-26T18:09:46.028Z,39.56
2019-02-26T18:14:56.095Z,39.91
2019-02-26T18:20:02.026Z,40.51
2019-02-26T18:25:11.995Z,41.29
2019-02-26T18:30:22.171Z,41.73
2019-02-26T18:35:32.240Z,43.38
2019-02-26T18:40:40.617Z,43.01
2019-02-26T18:45:48.612Z,43.15
2019-02-26T18:50:56.104Z,43.06
2019-02-26T18:56:05.473Z,44.12
2019-02-26T19:01:11.312Z,44.21
2019-02-26T19:06:18.498Z,44.47
2019-02-26T19:11:26.115Z,44.56
2019-02-26T19:16:37.554Z,44.56
2019-02-26T19:21:46.932Z,45.01
2019-02-26T19:26:53.981Z,45.76
2019-02-26T19:32:04.781Z,45.17
2019-02-26T19:37:12.300Z,46.17
2019-02-26T19:42:21.099Z,46.45
2019-02-26T19:47:29.087Z,47.75
2019-02-26T19:52:34.853Z,47.21
2019-02-26T19:57:41.705Z,47.33
2019-02-26T20:02:48.281Z,47.09
2019-02-26T20:07:58.437Z,47.82
2019-02-26T20:13:12.294Z,47.42
2019-02-26T20:18:20.649Z,47.82
2019-02-26T20:23:24.176Z,47.73
2019-02-26T20:28:29.927Z,48.54
2019-02-26T20:33:36.346Z,48.95
2019-02-26T20:38:42.114Z,49.44
2019-02-26T20:43:53.778Z,49.42
2019-02-26T20:49:05.785Z,49.41
2019-02-26T20:54:16.840Z,49.81
2019-02-26T20:59:23.236Z,50.71
2019-02-26T21:04:28.978Z,50.74
2019-02-26T21:09:40.768Z,50.34
2019-02-26T21:14:44.331Z,51.30
2019-02-26T21:19:50.059Z,51.23
2019-02-26T21:24:56.636Z,51.67
2019-02-26T21:30:11.827Z,51.92
2019-02-26T21:35:20.675Z,52.27
2019-02-26T21:40:33.331Z,52.56
2019-02-26T21:45:39.792Z,52.80
2019-02-26T21:50:47.727Z,53.32
2019-02-26T21:55:53.405Z,53.56
2019-02-26T22:01:02.164Z,53.62
2019-02-26T22:06:11.039Z,53.91
2019-02-26T22:11:19.170Z,53.94
2019-02-26T22:16:25.102Z,54.17
2019-02-26T22:21:31.465Z,54.80
2019-02-26T22:26:37.145Z,54.73
2019-02-26T22:31:42.838Z,55.18
2019-02-26T22:36:48.595Z,55.29
2019-02-26T22:41:54.219Z,55.11
2019-02-26T22:47:00.233Z,55.85
2019-02-26T22:52:10.917Z,55.56
2019-02-26T22:57:18.645Z,56.08
2019-02-26T23:02:24.885Z,56.32
2019-02-26T23:07:30.409Z,56.80
2019-02-26T23:12:36.238Z,56.79
2019-02-26T23:17:41.812Z,56.60
2019-02-26T23:22:47.503Z,57.44
2019-02-26T23:27:55.692Z,57.23
2019-02-26T23:33:03.113Z,57.07
2019-02-26T23:38:11.452Z,58.16
2019-02-26T23:43:17.449Z,57.75
2019-02-26T23:54:07.185Z,58.25
2019-02-26T23:59:15.804Z,57.84
